METAR Data
IDs: Format: Raw Decoded Include TAF

Data at: 0534 UTC 03 Jul 2022

KRZL 030515Z AUTO 00000KT 10SM CLR 15/13 A3009 RMK AO2